sensor_id;sensor_type;location;lat;lon;timestamp;temperature;humidity
13221;DHT22;6675;48.128;11.478;2024-02-04T00:00:44;7.00;1.00
13221;DHT22;6675;48.128;11.478;2024-02-04T00:03:10;6.90;1.00
13221;DHT22;6675;48.128;11.478;2024-02-04T00:05:35;9.10;1.00
13221;DHT22;6675;48.128;11.478;2024-02-04T00:08:01;6.80;1.00
13221;DHT22;6675;48.128;11.478;2024-02-04T00:10:27;7.80;1.00
13221;DHT22;6675;48.128;11.478;2024-02-04T00:12:53;6.70;1.00
13221;DHT22;6675;48.128;11.478;2024-02-04T00:15:19;6.90;1.00
13221;DHT22;6675;48.128;11.478;2024-02-04T00:17:44;4.70;1.00
13221;DHT22;6675;48.128;11.478;2024-02-04T00:20:10;8.60;1.00
13221;DHT22;6675;48.128;11.478;2024-02-04T00:25:02;4.70;1.00
13221;DHT22;6675;48.128;11.478;2024-02-04T00:27:33;7.00;1.00
13221;DHT22;6675;48.128;11.478;2024-02-04T00:29:59;7.10;1.00
13221;DHT22;6675;48.128;11.478;2024-02-04T00:32:25;6.50;1.00
13221;DHT22;6675;48.128;11.478;2024-02-04T00:34:51;7.00;1.00
13221;DHT22;6675;48.128;11.478;2024-02-04T00:37:17;6.50;1.00
13221;DHT22;6675;48.128;11.478;2024-02-04T00:39:42;6.50;1.00
13221;DHT22;6675;48.128;11.478;2024-02-04T00:42:08;6.70;1.00
13221;DHT22;6675;48.128;11.478;2024-02-04T00:44:33;7.00;1.00
13221;DHT22;6675;48.128;11.478;2024-02-04T00:46:59;7.50;1.00
13221;DHT22;6675;48.128;11.478;2024-02-04T00:54:17;6.80;1.00
13221;DHT22;6675;48.128;11.478;2024-02-04T00:56:43;6.80;1.00
13221;DHT22;6675;48.128;11.478;2024-02-04T00:59:09;7.20;1.00
13221;DHT22;6675;48.128;11.478;2024-02-04T01:04:00;7.20;1.00
13221;DHT22;6675;48.128;11.478;2024-02-04T01:06:26;5.40;1.00
13221;DHT22;6675;48.128;11.478;2024-02-04T01:08:53;6.60;1.00
13221;DHT22;6675;48.128;11.478;2024-02-04T01:11:18;7.10;1.00
13221;DHT22;6675;48.128;11.478;2024-02-04T01:13:44;6.70;1.00
13221;DHT22;6675;48.128;11.478;2024-02-04T01:16:10;8.90;1.00
13221;DHT22;6675;48.128;11.478;2024-02-04T01:18:35;7.20;1.00
13221;DHT22;6675;48.128;11.478;2024-02-04T01:21:01;6.90;1.00
13221;DHT22;6675;48.128;11.478;2024-02-04T01:23:26;6.80;1.00
13221;DHT22;6675;48.128;11.478;2024-02-04T01:28:18;7.10;1.00
13221;DHT22;6675;48.128;11.478;2024-02-04T01:30:44;8.00;1.00
13221;DHT22;6675;48.128;11.478;2024-02-04T01:33:09;5.10;1.00
13221;DHT22;6675;48.128;11.478;2024-02-04T01:35:35;6.40;1.00
13221;DHT22;6675;48.128;11.478;2024-02-04T01:38:01;7.10;1.00
13221;DHT22;6675;48.128;11.478;2024-02-04T01:40:26;7.10;1.00
13221;DHT22;6675;48.128;11.478;2024-02-04T01:42:52;8.70;1.00
13221;DHT22;6675;48.128;11.478;2024-02-04T01:45:17;7.00;1.00
13221;DHT22;6675;48.128;11.478;2024-02-04T01:47:43;5.90;1.00
13221;DHT22;6675;48.128;11.478;2024-02-04T01:50:09;6.90;1.00
13221;DHT22;6675;48.128;11.478;2024-02-04T01:52:37;6.50;1.00
13221;DHT22;6675;48.128;11.478;2024-02-04T01:55:04;4.40;1.00
13221;DHT22;6675;48.128;11.478;2024-02-04T01:57:31;6.80;1.00
13221;DHT22;6675;48.128;11.478;2024-02-04T01:59:56;7.40;1.00
13221;DHT22;6675;48.128;11.478;2024-02-04T02:02:23;6.80;1.00
13221;DHT22;6675;48.128;11.478;2024-02-04T02:04:49;6.40;1.00
13221;DHT22;6675;48.128;11.478;2024-02-04T02:07:16;6.60;1.00
13221;DHT22;6675;48.128;11.478;2024-02-04T02:09:43;6.60;1.00
13221;DHT22;6675;48.128;11.478;2024-02-04T02:12:19;6.80;1.00
13221;DHT22;6675;48.128;11.478;2024-02-04T02:14:52;7.20;1.00
13221;DHT22;6675;48.128;11.478;2024-02-04T02:17:28;6.60;1.00
13221;DHT22;6675;48.128;11.478;2024-02-04T02:20:05;8.50;1.00
13221;DHT22;6675;48.128;11.478;2024-02-04T02:23:06;6.90;1.00
13221;DHT22;6675;48.128;11.478;2024-02-04T02:30:32;7.60;1.00
13221;DHT22;6675;48.128;11.478;2024-02-04T02:32:57;6.80;1.00
13221;DHT22;6675;48.128;11.478;2024-02-04T02:35:23;7.00;1.00
13221;DHT22;6675;48.128;11.478;2024-02-04T02:40:42;4.40;1.00
13221;DHT22;6675;48.128;11.478;2024-02-04T02:43:10;6.60;1.00
13221;DHT22;6675;48.128;11.478;2024-02-04T02:45:39;7.00;1.00
13221;DHT22;6675;48.128;11.478;2024-02-04T02:48:05;6.90;1.00
13221;DHT22;6675;48.128;11.478;2024-02-04T02:50:31;8.90;1.00
13221;DHT22;6675;48.128;11.478;2024-02-04T02:52:57;6.90;1.00
13221;DHT22;6675;48.128;11.478;2024-02-04T02:57:48;7.20;1.00
13221;DHT22;6675;48.128;11.478;2024-02-04T03:00:14;7.10;1.00
13221;DHT22;6675;48.128;11.478;2024-02-04T03:02:40;8.80;1.00
13221;DHT22;6675;48.128;11.478;2024-02-04T03:05:05;6.90;1.00
13221;DHT22;6675;48.128;11.478;2024-02-04T03:09:57;7.10;1.00
13221;DHT22;6675;48.128;11.478;2024-02-04T03:12:22;8.30;1.00
13221;DHT22;6675;48.128;11.478;2024-02-04T03:14:48;5.30;1.00
13221;DHT22;6675;48.128;11.478;2024-02-04T03:19:39;7.10;1.00
13221;DHT22;6675;48.128;11.478;2024-02-04T03:22:05;6.70;1.00
13221;DHT22;6675;48.128;11.478;2024-02-04T03:24:30;7.50;1.00
13221;DHT22;6675;48.128;11.478;2024-02-04T03:26:56;6.90;1.00
13221;DHT22;6675;48.128;11.478;2024-02-04T03:29:22;8.70;1.00
13221;DHT22;6675;48.128;11.478;2024-02-04T03:34:13;6.80;1.00
13221;DHT22;6675;48.128;11.478;2024-02-04T03:36:39;7.60;1.00
13221;DHT22;6675;48.128;11.478;2024-02-04T03:39:04;4.60;1.00
13221;DHT22;6675;48.128;11.478;2024-02-04T03:41:30;6.20;1.00
13221;DHT22;6675;48.128;11.478;2024-02-04T03:43:55;6.90;1.00
13221;DHT22;6675;48.128;11.478;2024-02-04T03:46:21;6.90;1.00
13221;DHT22;6675;48.128;11.478;2024-02-04T03:48:47;6.50;1.00
13221;DHT22;6675;48.128;11.478;2024-02-04T03:51:16;6.70;1.00
13221;DHT22;6675;48.128;11.478;2024-02-04T03:53:42;6.40;1.00
13221;DHT22;6675;48.128;11.478;2024-02-04T03:56:08;7.60;1.00
13221;DHT22;6675;48.128;11.478;2024-02-04T03:58:34;6.20;1.00
13221;DHT22;6675;48.128;11.478;2024-02-04T04:03:26;6.40;1.00
13221;DHT22;6675;48.128;11.478;2024-02-04T04:05:53;6.20;1.00
13221;DHT22;6675;48.128;11.478;2024-02-04T04:08:18;6.10;1.00
13221;DHT22;6675;48.128;11.478;2024-02-04T04:10:44;6.40;1.00
13221;DHT22;6675;48.128;11.478;2024-02-04T04:13:10;3.90;1.00
13221;DHT22;6675;48.128;11.478;2024-02-04T04:15:36;6.50;1.00
13221;DHT22;6675;48.128;11.478;2024-02-04T04:18:01;5.80;1.00
13221;DHT22;6675;48.128;11.478;2024-02-04T04:20:27;7.40;1.00
13221;DHT22;6675;48.128;11.478;2024-02-04T04:25:18;6.60;1.00
13221;DHT22;6675;48.128;11.478;2024-02-04T04:27:44;5.90;1.00
13221;DHT22;6675;48.128;11.478;2024-02-04T04:30:10;6.10;1.00
13221;DHT22;6675;48.128;11.478;2024-02-04T04:32:36;7.00;1.00
13221;DHT22;6675;48.128;11.478;2024-02-04T04:35:01;6.20;1.00
13221;DHT22;6675;48.128;11.478;2024-02-04T04:37:27;6.00;1.00
13221;DHT22;6675;48.128;11.478;2024-02-04T04:39:52;3.90;1.00
13221;DHT22;6675;48.128;11.478;2024-02-04T04:42:18;7.60;1.00
13221;DHT22;6675;48.128;11.478;2024-02-04T04:44:43;6.30;1.00
13221;DHT22;6675;48.128;11.478;2024-02-04T04:47:09;3.90;1.00
13221;DHT22;6675;48.128;11.478;2024-02-04T04:49:34;6.90;1.00
13221;DHT22;6675;48.128;11.478;2024-02-04T04:52:00;4.00;1.00
13221;DHT22;6675;48.128;11.478;2024-02-04T04:54:27;5.80;1.00
13221;DHT22;6675;48.128;11.478;2024-02-04T04:56:53;6.00;1.00
13221;DHT22;6675;48.128;11.478;2024-02-04T04:59:19;5.80;1.00
13221;DHT22;6675;48.128;11.478;2024-02-04T05:01:48;6.10;1.00
13221;DHT22;6675;48.128;11.478;2024-02-04T05:04:14;5.80;1.00
13221;DHT22;6675;48.128;11.478;2024-02-04T05:06:40;5.80;1.00
13221;DHT22;6675;48.128;11.478;2024-02-04T05:09:06;5.80;1.00
13221;DHT22;6675;48.128;11.478;2024-02-04T05:11:31;6.00;1.00
13221;DHT22;6675;48.128;11.478;2024-02-04T05:13:57;5.70;1.00
13221;DHT22;6675;48.128;11.478;2024-02-04T05:16:22;3.50;5.10
13221;DHT22;6675;48.128;11.478;2024-02-04T05:18:48;6.20;7.40
13221;DHT22;6675;48.128;11.478;2024-02-04T05:21:14;7.60;9.20
13221;DHT22;6675;48.128;11.478;2024-02-04T05:23:39;5.70;1.00
13221;DHT22;6675;48.128;11.478;2024-02-04T05:26:05;7.70;9.70
13221;DHT22;6675;48.128;11.478;2024-02-04T05:28:31;5.60;3.30
13221;DHT22;6675;48.128;11.478;2024-02-04T05:33:23;6.10;13.30
13221;DHT22;6675;48.128;11.478;2024-02-04T05:35:49;5.40;5.80
13221;DHT22;6675;48.128;11.478;2024-02-04T05:38:16;5.90;6.90
13221;DHT22;6675;48.128;11.478;2024-02-04T05:40:42;5.80;7.30
13221;DHT22;6675;48.128;11.478;2024-02-04T05:43:08;5.30;7.00
13221;DHT22;6675;48.128;11.478;2024-02-04T05:45:39;7.60;17.90
13221;DHT22;6675;48.128;11.478;2024-02-04T05:48:08;3.90;15.40
13221;DHT22;6675;48.128;11.478;2024-02-04T05:52:59;5.80;9.90
13221;DHT22;6675;48.128;11.478;2024-02-04T05:55:25;5.80;10.60
13221;DHT22;6675;48.128;11.478;2024-02-04T05:57:51;4.10;15.60
13221;DHT22;6675;48.128;11.478;2024-02-04T06:00:16;6.10;16.80
13221;DHT22;6675;48.128;11.478;2024-02-04T06:02:42;7.40;18.30
13221;DHT22;6675;48.128;11.478;2024-02-04T06:05:14;6.10;8.70
13221;DHT22;6675;48.128;11.478;2024-02-04T06:07:39;6.00;9.20
13221;DHT22;6675;48.128;11.478;2024-02-04T06:10:08;5.40;17.10
13221;DHT22;6675;48.128;11.478;2024-02-04T06:12:34;5.80;8.90
13221;DHT22;6675;48.128;11.478;2024-02-04T06:15:00;5.40;8.00
13221;DHT22;6675;48.128;11.478;2024-02-04T06:17:25;5.80;13.80
13221;DHT22;6675;48.128;11.478;2024-02-04T06:19:51;6.10;14.80
13221;DHT22;6675;48.128;11.478;2024-02-04T06:22:16;6.10;7.60
13221;DHT22;6675;48.128;11.478;2024-02-04T06:24:42;5.90;6.60
13221;DHT22;6675;48.128;11.478;2024-02-04T06:27:08;5.40;6.00
13221;DHT22;6675;48.128;11.478;2024-02-04T06:29:33;3.30;10.50
13221;DHT22;6675;48.128;11.478;2024-02-04T06:34:25;5.90;5.30
13221;DHT22;6675;48.128;11.478;2024-02-04T06:36:51;3.60;9.10
13221;DHT22;6675;48.128;11.478;2024-02-04T06:41:42;6.10;3.70
13221;DHT22;6675;48.128;11.478;2024-02-04T06:46:34;6.20;9.20
13221;DHT22;6675;48.128;11.478;2024-02-04T06:49:00;6.10;1.50
13221;DHT22;6675;48.128;11.478;2024-02-04T06:51:26;6.30;1.00
13221;DHT22;6675;48.128;11.478;2024-02-04T06:53:52;6.50;7.80
13221;DHT22;6675;48.128;11.478;2024-02-04T06:56:17;5.70;1.00
13221;DHT22;6675;48.128;11.478;2024-02-04T06:58:43;6.30;1.00
13221;DHT22;6675;48.128;11.478;2024-02-04T07:01:11;6.10;1.00
13221;DHT22;6675;48.128;11.478;2024-02-04T07:06:03;5.60;3.80
13221;DHT22;6675;48.128;11.478;2024-02-04T07:08:28;6.30;1.00
13221;DHT22;6675;48.128;11.478;2024-02-04T07:10:54;6.50;1.40
13221;DHT22;6675;48.128;11.478;2024-02-04T07:13:20;6.70;1.20
13221;DHT22;6675;48.128;11.478;2024-02-04T07:15:45;6.40;1.00
13221;DHT22;6675;48.128;11.478;2024-02-04T07:18:11;6.70;1.00
13221;DHT22;6675;48.128;11.478;2024-02-04T07:20:37;6.70;1.00
13221;DHT22;6675;48.128;11.478;2024-02-04T07:23:03;6.60;1.00
13221;DHT22;6675;48.128;11.478;2024-02-04T07:27:55;6.60;1.00
13221;DHT22;6675;48.128;11.478;2024-02-04T07:30:22;6.60;1.00
13221;DHT22;6675;48.128;11.478;2024-02-04T07:32:47;6.20;1.00
13221;DHT22;6675;48.128;11.478;2024-02-04T07:35:13;8.20;1.00
13221;DHT22;6675;48.128;11.478;2024-02-04T07:37:38;7.10;1.00
13221;DHT22;6675;48.128;11.478;2024-02-04T07:40:05;6.90;1.00
13221;DHT22;6675;48.128;11.478;2024-02-04T07:42:31;6.60;1.00
13221;DHT22;6675;48.128;11.478;2024-02-04T07:44:57;6.10;1.00
13221;DHT22;6675;48.128;11.478;2024-02-04T07:47:23;6.30;1.00
13221;DHT22;6675;48.128;11.478;2024-02-04T07:49:49;6.90;1.00
13221;DHT22;6675;48.128;11.478;2024-02-04T07:52:15;6.10;1.00
13221;DHT22;6675;48.128;11.478;2024-02-04T07:54:40;6.60;1.00
13221;DHT22;6675;48.128;11.478;2024-02-04T07:57:06;6.20;1.00
13221;DHT22;6675;48.128;11.478;2024-02-04T07:59:32;6.70;1.00
13221;DHT22;6675;48.128;11.478;2024-02-04T08:06:49;7.70;1.00
13221;DHT22;6675;48.128;11.478;2024-02-04T08:09:15;6.60;1.00
13221;DHT22;6675;48.128;11.478;2024-02-04T08:11:40;7.00;1.00
13221;DHT22;6675;48.128;11.478;2024-02-04T08:14:06;8.40;1.00
13221;DHT22;6675;48.128;11.478;2024-02-04T08:16:32;7.10;1.00
13221;DHT22;6675;48.128;11.478;2024-02-04T08:18:58;6.50;1.00
13221;DHT22;6675;48.128;11.478;2024-02-04T08:21:23;5.10;1.00
13221;DHT22;6675;48.128;11.478;2024-02-04T08:23:49;5.30;1.00
13221;DHT22;6675;48.128;11.478;2024-02-04T08:26:14;6.90;1.00
13221;DHT22;6675;48.128;11.478;2024-02-04T08:28:40;7.30;1.00
13221;DHT22;6675;48.128;11.478;2024-02-04T08:33:31;8.80;1.00
13221;DHT22;6675;48.128;11.478;2024-02-04T08:35:57;7.20;1.00
13221;DHT22;6675;48.128;11.478;2024-02-04T08:38:23;8.70;1.00
13221;DHT22;6675;48.128;11.478;2024-02-04T08:40:48;7.40;1.00
13221;DHT22;6675;48.128;11.478;2024-02-04T08:43:14;7.50;1.00
13221;DHT22;6675;48.128;11.478;2024-02-04T08:48:06;7.30;1.00
13221;DHT22;6675;48.128;11.478;2024-02-04T08:52:58;7.30;1.00
13221;DHT22;6675;48.128;11.478;2024-02-04T08:55:23;8.80;1.00
13221;DHT22;6675;48.128;11.478;2024-02-04T08:57:49;8.60;1.00
13221;DHT22;6675;48.128;11.478;2024-02-04T09:00:16;4.80;1.00
13221;DHT22;6675;48.128;11.478;2024-02-04T09:05:08;9.00;1.00
13221;DHT22;6675;48.128;11.478;2024-02-04T09:09:59;8.00;1.00
13221;DHT22;6675;48.128;11.478;2024-02-04T09:12:25;7.70;1.00
13221;DHT22;6675;48.128;11.478;2024-02-04T09:14:50;9.00;1.00
13221;DHT22;6675;48.128;11.478;2024-02-04T09:17:16;5.30;1.00
13221;DHT22;6675;48.128;11.478;2024-02-04T09:19:41;7.70;1.00
13221;DHT22;6675;48.128;11.478;2024-02-04T09:22:07;7.70;1.00
13221;DHT22;6675;48.128;11.478;2024-02-04T09:24:33;5.50;1.00
13221;DHT22;6675;48.128;11.478;2024-02-04T09:26:59;9.50;1.00
13221;DHT22;6675;48.128;11.478;2024-02-04T09:31:51;5.20;1.00
13221;DHT22;6675;48.128;11.478;2024-02-04T09:34:17;5.70;1.00
13221;DHT22;6675;48.128;11.478;2024-02-04T09:36:43;9.80;1.00
13221;DHT22;6675;48.128;11.478;2024-02-04T09:39:09;5.40;1.00
13221;DHT22;6675;48.128;11.478;2024-02-04T09:41:35;7.90;1.00
13221;DHT22;6675;48.128;11.478;2024-02-04T09:44:02;5.40;1.00
13221;DHT22;6675;48.128;11.478;2024-02-04T09:46:29;8.30;1.00
13221;DHT22;6675;48.128;11.478;2024-02-04T09:48:55;7.60;1.00
13221;DHT22;6675;48.128;11.478;2024-02-04T09:51:21;8.30;1.00
13221;DHT22;6675;48.128;11.478;2024-02-04T09:53:51;7.70;1.00
13221;DHT22;6675;48.128;11.478;2024-02-04T09:56:17;7.90;1.00
13221;DHT22;6675;48.128;11.478;2024-02-04T10:01:10;8.10;1.00
13221;DHT22;6675;48.128;11.478;2024-02-04T10:03:36;7.80;1.00
13221;DHT22;6675;48.128;11.478;2024-02-04T10:06:02;8.20;1.00
13221;DHT22;6675;48.128;11.478;2024-02-04T10:10:54;8.40;1.00
13221;DHT22;6675;48.128;11.478;2024-02-04T10:13:20;8.10;1.00
13221;DHT22;6675;48.128;11.478;2024-02-04T10:15:47;8.30;1.00
13221;DHT22;6675;48.128;11.478;2024-02-04T10:18:13;8.40;1.00
13221;DHT22;6675;48.128;11.478;2024-02-04T10:20:39;6.20;1.00
13221;DHT22;6675;48.128;11.478;2024-02-04T10:23:04;8.20;1.00
13221;DHT22;6675;48.128;11.478;2024-02-04T10:25:30;6.20;1.00
13221;DHT22;6675;48.128;11.478;2024-02-04T10:27:56;8.30;1.00
13221;DHT22;6675;48.128;11.478;2024-02-04T10:30:23;9.40;1.00
13221;DHT22;6675;48.128;11.478;2024-02-04T10:35:20;8.90;1.00
13221;DHT22;6675;48.128;11.478;2024-02-04T10:37:51;11.00;1.00
13221;DHT22;6675;48.128;11.478;2024-02-04T10:40:17;9.60;1.00
13221;DHT22;6675;48.128;11.478;2024-02-04T10:42:44;8.90;1.00
13221;DHT22;6675;48.128;11.478;2024-02-04T10:45:10;11.20;1.00
13221;DHT22;6675;48.128;11.478;2024-02-04T10:47:39;9.80;1.00
13221;DHT22;6675;48.128;11.478;2024-02-04T10:50:06;9.50;1.00
13221;DHT22;6675;48.128;11.478;2024-02-04T10:52:39;10.50;1.00
13221;DHT22;6675;48.128;11.478;2024-02-04T10:55:09;9.00;1.00
13221;DHT22;6675;48.128;11.478;2024-02-04T11:00:03;8.50;1.00
13221;DHT22;6675;48.128;11.478;2024-02-04T11:02:34;10.80;1.00
13221;DHT22;6675;48.128;11.478;2024-02-04T11:05:00;6.90;1.00
13221;DHT22;6675;48.128;11.478;2024-02-04T11:07:31;9.30;1.00
13221;DHT22;6675;48.128;11.478;2024-02-04T11:09:57;9.30;1.00
13221;DHT22;6675;48.128;11.478;2024-02-04T11:14:56;9.40;1.00
13221;DHT22;6675;48.128;11.478;2024-02-04T11:17:51;9.40;1.00
13221;DHT22;6675;48.128;11.478;2024-02-04T11:21:10;9.60;1.00
13221;DHT22;6675;48.128;11.478;2024-02-04T11:23:48;7.40;1.00
13221;DHT22;6675;48.128;11.478;2024-02-04T11:26:17;9.20;1.00
13221;DHT22;6675;48.128;11.478;2024-02-04T11:28:43;8.70;1.00
13221;DHT22;6675;48.128;11.478;2024-02-04T11:31:17;6.90;1.00
13221;DHT22;6675;48.128;11.478;2024-02-04T11:33:43;9.80;1.00
13221;DHT22;6675;48.128;11.478;2024-02-04T11:36:14;9.10;1.00
13221;DHT22;6675;48.128;11.478;2024-02-04T11:38:40;10.80;1.00
13221;DHT22;6675;48.128;11.478;2024-02-04T11:41:06;9.30;1.00
13221;DHT22;6675;48.128;11.478;2024-02-04T11:43:33;9.40;1.00
13221;DHT22;6675;48.128;11.478;2024-02-04T11:46:04;10.20;1.00
13221;DHT22;6675;48.128;11.478;2024-02-04T11:48:32;8.90;1.00
13221;DHT22;6675;48.128;11.478;2024-02-04T11:50:58;7.60;1.00
13221;DHT22;6675;48.128;11.478;2024-02-04T11:58:26;9.00;1.00
13221;DHT22;6675;48.128;11.478;2024-02-04T12:00:52;9.50;1.00
13221;DHT22;6675;48.128;11.478;2024-02-04T12:03:28;9.00;1.00
13221;DHT22;6675;48.128;11.478;2024-02-04T12:05:55;8.90;1.00
13221;DHT22;6675;48.128;11.478;2024-02-04T12:08:21;8.40;1.00
13221;DHT22;6675;48.128;11.478;2024-02-04T12:15:47;9.00;1.00
13221;DHT22;6675;48.128;11.478;2024-02-04T12:25:34;9.20;1.00
13221;DHT22;6675;48.128;11.478;2024-02-04T12:28:01;9.20;1.00
13221;DHT22;6675;48.128;11.478;2024-02-04T12:30:28;7.10;1.00
13221;DHT22;6675;48.128;11.478;2024-02-04T12:35:25;8.30;1.00
13221;DHT22;6675;48.128;11.478;2024-02-04T12:37:54;9.10;1.00
13221;DHT22;6675;48.128;11.478;2024-02-04T12:40:24;9.20;1.00
13221;DHT22;6675;48.128;11.478;2024-02-04T12:42:57;8.20;1.00
13221;DHT22;6675;48.128;11.478;2024-02-04T12:45:24;9.90;1.00
13221;DHT22;6675;48.128;11.478;2024-02-04T12:47:57;9.20;1.00
13221;DHT22;6675;48.128;11.478;2024-02-04T12:53:01;8.90;1.00
13221;DHT22;6675;48.128;11.478;2024-02-04T12:55:27;9.10;1.00
13221;DHT22;6675;48.128;11.478;2024-02-04T13:00:35;8.10;1.00
13221;DHT22;6675;48.128;11.478;2024-02-04T13:03:05;6.90;1.00
13221;DHT22;6675;48.128;11.478;2024-02-04T13:05:31;7.10;1.00
13221;DHT22;6675;48.128;11.478;2024-02-04T13:07:59;9.20;1.00
13221;DHT22;6675;48.128;11.478;2024-02-04T13:10:28;9.50;1.00
13221;DHT22;6675;48.128;11.478;2024-02-04T13:13:00;11.20;1.00
13221;DHT22;6675;48.128;11.478;2024-02-04T13:15:30;7.90;1.00
13221;DHT22;6675;48.128;11.478;2024-02-04T13:17:56;11.30;1.00
13221;DHT22;6675;48.128;11.478;2024-02-04T13:20:22;9.20;1.00
13221;DHT22;6675;48.128;11.478;2024-02-04T13:22:48;9.20;1.00
13221;DHT22;6675;48.128;11.478;2024-02-04T13:25:14;9.40;1.00
13221;DHT22;6675;48.128;11.478;2024-02-04T13:27:40;6.80;1.00
13221;DHT22;6675;48.128;11.478;2024-02-04T13:30:06;8.60;1.00
13221;DHT22;6675;48.128;11.478;2024-02-04T13:32:40;10.70;1.00
13221;DHT22;6675;48.128;11.478;2024-02-04T13:35:06;9.10;1.00
13221;DHT22;6675;48.128;11.478;2024-02-04T13:37:41;6.90;1.00
13221;DHT22;6675;48.128;11.478;2024-02-04T13:40:07;9.30;1.00
13221;DHT22;6675;48.128;11.478;2024-02-04T13:42:34;9.60;1.00
13221;DHT22;6675;48.128;11.478;2024-02-04T13:45:00;9.40;1.00
13221;DHT22;6675;48.128;11.478;2024-02-04T13:47:27;7.40;1.00
13221;DHT22;6675;48.128;11.478;2024-02-04T13:49:53;8.50;1.00
13221;DHT22;6675;48.128;11.478;2024-02-04T13:52:18;7.80;1.00
13221;DHT22;6675;48.128;11.478;2024-02-04T13:59:36;9.50;1.00
13221;DHT22;6675;48.128;11.478;2024-02-04T14:04:29;7.20;1.00
13221;DHT22;6675;48.128;11.478;2024-02-04T14:06:55;11.60;1.00
13221;DHT22;6675;48.128;11.478;2024-02-04T14:09:20;9.10;1.00
13221;DHT22;6675;48.128;11.478;2024-02-04T14:14:12;9.50;1.00
13221;DHT22;6675;48.128;11.478;2024-02-04T14:19:05;9.50;1.00
13221;DHT22;6675;48.128;11.478;2024-02-04T14:21:30;9.90;1.00
13221;DHT22;6675;48.128;11.478;2024-02-04T14:23:56;9.70;1.00
13221;DHT22;6675;48.128;11.478;2024-02-04T14:28:50;11.10;1.00
13221;DHT22;6675;48.128;11.478;2024-02-04T14:33:42;11.40;1.00
13221;DHT22;6675;48.128;11.478;2024-02-04T14:36:08;9.80;1.00
13221;DHT22;6675;48.128;11.478;2024-02-04T14:41:03;8.00;1.00
13221;DHT22;6675;48.128;11.478;2024-02-04T14:48:20;9.90;1.00
13221;DHT22;6675;48.128;11.478;2024-02-04T14:50:46;9.90;1.00
13221;DHT22;6675;48.128;11.478;2024-02-04T14:53:13;9.60;1.00
13221;DHT22;6675;48.128;11.478;2024-02-04T14:58:05;7.80;1.00
13221;DHT22;6675;48.128;11.478;2024-02-04T15:00:31;11.40;1.00
13221;DHT22;6675;48.128;11.478;2024-02-04T15:02:57;11.80;1.00
13221;DHT22;6675;48.128;11.478;2024-02-04T15:05:25;8.20;1.00
13221;DHT22;6675;48.128;11.478;2024-02-04T15:07:50;9.50;1.00
13221;DHT22;6675;48.128;11.478;2024-02-04T15:12:43;9.70;1.00
13221;DHT22;6675;48.128;11.478;2024-02-04T15:15:09;9.70;1.00
13221;DHT22;6675;48.128;11.478;2024-02-04T15:17:35;10.70;1.00
13221;DHT22;6675;48.128;11.478;2024-02-04T15:22:28;9.90;1.00
13221;DHT22;6675;48.128;11.478;2024-02-04T15:24:53;11.50;1.00
13221;DHT22;6675;48.128;11.478;2024-02-04T15:27:19;11.10;1.00
13221;DHT22;6675;48.128;11.478;2024-02-04T15:32:14;9.50;1.00
13221;DHT22;6675;48.128;11.478;2024-02-04T15:34:41;9.50;1.00
13221;DHT22;6675;48.128;11.478;2024-02-04T15:37:07;9.50;1.00
13221;DHT22;6675;48.128;11.478;2024-02-04T15:39:34;9.50;1.00
13221;DHT22;6675;48.128;11.478;2024-02-04T15:44:26;10.80;1.00
13221;DHT22;6675;48.128;11.478;2024-02-04T15:46:51;10.90;1.00
13221;DHT22;6675;48.128;11.478;2024-02-04T15:49:19;9.70;1.00
13221;DHT22;6675;48.128;11.478;2024-02-04T15:51:45;7.20;1.00
13221;DHT22;6675;48.128;11.478;2024-02-04T15:54:12;7.40;1.00
13221;DHT22;6675;48.128;11.478;2024-02-04T15:56:42;9.70;1.00
13221;DHT22;6675;48.128;11.478;2024-02-04T15:59:09;7.20;1.00
13221;DHT22;6675;48.128;11.478;2024-02-04T16:01:37;11.00;1.00
13221;DHT22;6675;48.128;11.478;2024-02-04T16:04:04;8.10;1.00
13221;DHT22;6675;48.128;11.478;2024-02-04T16:06:30;10.90;1.00
13221;DHT22;6675;48.128;11.478;2024-02-04T16:08:56;10.70;1.00
13221;DHT22;6675;48.128;11.478;2024-02-04T16:11:24;9.70;1.00
13221;DHT22;6675;48.128;11.478;2024-02-04T16:13:51;10.60;1.00
13221;DHT22;6675;48.128;11.478;2024-02-04T16:16:24;9.50;1.00
13221;DHT22;6675;48.128;11.478;2024-02-04T16:18:53;10.50;1.00
13221;DHT22;6675;48.128;11.478;2024-02-04T16:23:44;10.90;1.00
13221;DHT22;6675;48.128;11.478;2024-02-04T16:26:10;10.70;1.00
13221;DHT22;6675;48.128;11.478;2024-02-04T16:28:38;9.80;1.00
13221;DHT22;6675;48.128;11.478;2024-02-04T16:31:04;9.20;1.00
13221;DHT22;6675;48.128;11.478;2024-02-04T16:43:14;11.60;1.00
13221;DHT22;6675;48.128;11.478;2024-02-04T16:48:06;9.50;1.00
13221;DHT22;6675;48.128;11.478;2024-02-04T16:50:32;7.20;1.00
13221;DHT22;6675;48.128;11.478;2024-02-04T16:52:57;9.70;1.00
13221;DHT22;6675;48.128;11.478;2024-02-04T16:55:23;9.60;1.00
13221;DHT22;6675;48.128;11.478;2024-02-04T16:57:49;11.60;1.00
13221;DHT22;6675;48.128;11.478;2024-02-04T17:00:14;7.70;1.00
13221;DHT22;6675;48.128;11.478;2024-02-04T17:02:41;7.50;1.00
13221;DHT22;6675;48.128;11.478;2024-02-04T17:05:07;9.80;1.00
13221;DHT22;6675;48.128;11.478;2024-02-04T17:07:36;9.60;1.00
13221;DHT22;6675;48.128;11.478;2024-02-04T17:10:02;10.00;1.00
13221;DHT22;6675;48.128;11.478;2024-02-04T17:12:28;8.40;1.00
13221;DHT22;6675;48.128;11.478;2024-02-04T17:14:55;9.80;1.00
13221;DHT22;6675;48.128;11.478;2024-02-04T17:17:20;10.50;1.00
13221;DHT22;6675;48.128;11.478;2024-02-04T17:20:06;9.80;1.00
13221;DHT22;6675;48.128;11.478;2024-02-04T17:22:37;11.10;1.00
13221;DHT22;6675;48.128;11.478;2024-02-04T17:25:04;8.60;1.00
13221;DHT22;6675;48.128;11.478;2024-02-04T17:27:38;7.50;1.00
13221;DHT22;6675;48.128;11.478;2024-02-04T17:30:05;7.70;1.00
13221;DHT22;6675;48.128;11.478;2024-02-04T17:32:32;9.80;1.00
13221;DHT22;6675;48.128;11.478;2024-02-04T17:34:59;11.50;1.00
13221;DHT22;6675;48.128;11.478;2024-02-04T17:37:25;9.90;1.00
13221;DHT22;6675;48.128;11.478;2024-02-04T17:39:50;9.90;1.00
13221;DHT22;6675;48.128;11.478;2024-02-04T17:42:16;9.30;1.00
13221;DHT22;6675;48.128;11.478;2024-02-04T17:44:41;9.70;1.00
13221;DHT22;6675;48.128;11.478;2024-02-04T17:47:07;9.80;1.00
13221;DHT22;6675;48.128;11.478;2024-02-04T17:49:33;9.90;1.00
13221;DHT22;6675;48.128;11.478;2024-02-04T17:51:58;9.90;1.00
13221;DHT22;6675;48.128;11.478;2024-02-04T17:54:24;10.00;1.00
13221;DHT22;6675;48.128;11.478;2024-02-04T17:56:53;11.90;1.00
13221;DHT22;6675;48.128;11.478;2024-02-04T17:59:20;7.70;1.00
13221;DHT22;6675;48.128;11.478;2024-02-04T18:01:45;11.80;1.00
13221;DHT22;6675;48.128;11.478;2024-02-04T18:04:11;7.90;1.00
13221;DHT22;6675;48.128;11.478;2024-02-04T18:06:38;9.70;1.00
13221;DHT22;6675;48.128;11.478;2024-02-04T18:09:07;8.20;1.00
13221;DHT22;6675;48.128;11.478;2024-02-04T18:11:33;9.90;1.00
13221;DHT22;6675;48.128;11.478;2024-02-04T18:13:59;10.90;1.00
13221;DHT22;6675;48.128;11.478;2024-02-04T18:18:52;7.40;1.00
13221;DHT22;6675;48.128;11.478;2024-02-04T18:21:24;9.50;1.00
13221;DHT22;6675;48.128;11.478;2024-02-04T18:23:51;9.50;1.00
13221;DHT22;6675;48.128;11.478;2024-02-04T18:26:19;9.70;1.00
13221;DHT22;6675;48.128;11.478;2024-02-04T18:28:44;11.20;1.00
13221;DHT22;6675;48.128;11.478;2024-02-04T18:33:36;9.20;1.00
13221;DHT22;6675;48.128;11.478;2024-02-04T18:36:02;9.20;1.00
13221;DHT22;6675;48.128;11.478;2024-02-04T18:38:28;9.20;1.00
13221;DHT22;6675;48.128;11.478;2024-02-04T18:40:53;9.50;1.00